Time;durP1;ratioP1;P1;durP2;ratioP2;P2;SDS_P1;SDS_P2;PMS_P1;PMS_P2;Temp;Humidity;BMP_temperature;BMP_pressure;BME280_temperature;BME280_humidity;BME280_pressure;Samples;Min_cycle;Max_cycle;Signal;HPM_P1;HPM_P2
2021/07/26 00:01:30;;;;;;;2.20;1.67;;;21.10;99.90;;;;;;5091807;28;20164;-72
2021/07/26 00:03:56;;;;;;;7.40;1.45;;;21.20;99.90;;;;;;5091713;28;20205;-72
2021/07/26 00:06:22;;;;;;;4.57;2.13;;;21.20;99.90;;;;;;5091765;28;20152;-72
2021/07/26 00:08:47;;;;;;;1.75;1.20;;;21.10;99.90;;;;;;5090525;28;20168;-72
2021/07/26 00:11:13;;;;;;;1.58;1.50;;;21.10;99.90;;;;;;5091655;28;20168;-72
2021/07/26 00:13:39;;;;;;;2.30;1.50;;;21.20;99.90;;;;;;5090198;28;20763;-72
2021/07/26 00:16:06;;;;;;;4.43;1.23;;;21.30;99.90;;;;;;5091557;28;20152;-72
2021/07/26 00:18:33;;;;;;;1.58;1.48;;;21.40;99.90;;;;;;5090168;28;20177;-72
2021/07/26 00:21:00;;;;;;;2.33;1.73;;;21.50;99.90;;;;;;5091507;28;20198;-72
2021/07/26 00:23:26;;;;;;;6.20;1.90;;;21.50;99.90;;;;;;5091326;28;20198;-72
2021/07/26 00:25:53;;;;;;;1.27;0.93;;;21.50;99.90;;;;;;5090059;28;20171;-72
2021/07/26 00:28:19;;;;;;;2.22;2.13;;;21.60;99.90;;;;;;5091424;28;20156;-72
2021/07/26 00:30:45;;;;;;;0.73;0.73;;;21.60;99.90;;;;;;5091252;28;20160;-72
2021/07/26 00:34:13;;;;;;;0.82;0.82;;;21.60;99.90;;;;;;5090598;28;20214;-72
2021/07/26 00:36:39;;;;;;;5.20;1.38;;;21.60;99.90;;;;;;5048537;28;20177;-72
2021/07/26 00:39:07;;;;;;;1.75;1.35;;;21.60;99.90;;;;;;5049094;28;20200;-72
2021/07/26 00:41:35;;;;;;;1.70;1.60;;;21.70;99.90;;;;;;5032250;28;20249;-72
2021/07/26 00:44:01;;;;;;;1.27;1.17;;;21.60;99.90;;;;;;5048737;28;20221;-72
2021/07/26 00:46:27;;;;;;;3.80;2.22;;;21.60;99.90;;;;;;5048773;28;20177;-72
2021/07/26 00:48:54;;;;;;;1.70;1.60;;;21.40;99.90;;;;;;5048520;28;20232;-72
2021/07/26 00:51:20;;;;;;;2.05;1.10;;;21.30;99.90;;;;;;5048713;28;20183;-72
2021/07/26 00:53:47;;;;;;;1.70;1.02;;;21.20;99.90;;;;;;5031996;28;20221;-72
2021/07/26 00:56:14;;;;;;;1.98;1.13;;;21.20;99.90;;;;;;5031892;28;20265;-72
2021/07/26 00:58:41;;;;;;;2.85;1.92;;;21.10;99.90;;;;;;5048636;28;20192;-72
2021/07/26 01:01:09;;;;;;;0.88;0.60;;;21.00;99.90;;;;;;5048505;28;20181;-72
2021/07/26 01:03:36;;;;;;;3.22;2.13;;;20.90;99.90;;;;;;5031815;28;20227;-72
2021/07/26 01:06:03;;;;;;;1.02;0.98;;;20.80;99.90;;;;;;5048417;28;20177;-72
2021/07/26 01:08:29;;;;;;;4.43;1.20;;;20.70;99.90;;;;;;5048591;28;20166;-72
2021/07/26 01:10:55;;;;;;;3.30;1.15;;;20.60;99.90;;;;;;5048516;28;20189;-72
2021/07/26 01:13:24;;;;;;;1.67;1.40;;;20.60;99.90;;;;;;5048085;28;20212;-72
2021/07/26 01:15:52;;;;;;;0.45;0.45;;;20.60;99.90;;;;;;5048419;28;20157;-72
2021/07/26 01:18:23;;;;;;;1.33;1.23;;;20.50;99.90;;;;;;5032481;28;20173;-72
2021/07/26 01:20:53;;;;;;;0.82;0.82;;;20.40;99.90;;;;;;5090330;28;20210;-72
2021/07/26 01:23:20;;;;;;;0.77;0.77;;;20.30;99.90;;;;;;5090136;28;20188;-72
2021/07/26 01:25:47;;;;;;;4.68;1.80;;;20.40;99.90;;;;;;5090173;28;20521;-72
2021/07/26 01:28:19;;;;;;;0.68;0.65;;;20.50;99.90;;;;;;5090196;28;20174;-72
2021/07/26 01:30:46;;;;;;;2.33;1.58;;;20.50;99.90;;;;;;5090314;28;20527;-72
2021/07/26 01:33:14;;;;;;;1.70;1.60;;;20.40;99.90;;;;;;5089837;28;20208;-72
2021/07/26 01:35:40;;;;;;;1.33;1.33;;;20.40;99.90;;;;;;5090036;28;20148;-72
2021/07/26 01:38:07;;;;;;;1.13;1.13;;;20.40;99.90;;;;;;5090010;28;20164;-72
2021/07/26 01:40:38;;;;;;;3.80;1.55;;;20.40;99.90;;;;;;5088463;28;20201;-73
2021/07/26 01:43:06;;;;;;;1.13;1.02;;;20.50;99.90;;;;;;5088497;28;20199;-72
2021/07/26 01:45:39;;;;;;;0.75;0.75;;;20.40;99.90;;;;;;5088242;28;20159;-73
2021/07/26 01:48:05;;;;;;;1.73;1.13;;;20.40;99.90;;;;;;5089574;28;20272;-72
2021/07/26 01:50:38;;;;;;;6.80;1.48;;;20.40;99.90;;;;;;5088398;28;20261;-73
2021/07/26 01:53:04;;;;;;;1.25;1.15;;;20.40;99.90;;;;;;5089575;28;20254;-72
2021/07/26 01:55:31;;;;;;;1.55;0.85;;;20.30;99.90;;;;;;5089839;28;20190;-72
2021/07/26 01:57:57;;;;;;;1.27;1.17;;;20.30;99.90;;;;;;5088418;28;20172;-72
2021/07/26 02:00:23;;;;;;;1.90;1.80;;;20.30;99.90;;;;;;5089584;28;20171;-72
2021/07/26 02:02:49;;;;;;;1.50;1.40;;;20.20;99.90;;;;;;5089493;28;20234;-72
2021/07/26 02:05:15;;;;;;;1.48;1.23;;;20.10;99.90;;;;;;5089553;28;20160;-72
2021/07/26 02:07:41;;;;;;;1.58;1.48;;;20.20;99.90;;;;;;5088169;28;20664;-72
2021/07/26 02:10:07;;;;;;;2.20;0.77;;;20.30;99.90;;;;;;5089519;28;20175;-72
2021/07/26 02:12:33;;;;;;;2.85;1.50;;;20.20;99.90;;;;;;5087943;28;20168;-72
2021/07/26 02:15:00;;;;;;;0.93;0.93;;;20.10;99.90;;;;;;5088099;28;20194;-72
2021/07/26 02:17:26;;;;;;;1.13;0.90;;;20.20;99.90;;;;;;5087997;28;20179;-72
2021/07/26 02:19:52;;;;;;;1.58;1.48;;;20.10;99.90;;;;;;5089371;28;20161;-72
2021/07/26 02:22:19;;;;;;;1.25;0.70;;;20.10;99.90;;;;;;5086991;28;20182;-72
2021/07/26 02:24:45;;;;;;;0.55;0.55;;;20.00;99.90;;;;;;5089236;28;20198;-72
2021/07/26 02:27:11;;;;;;;1.58;1.48;;;20.00;99.90;;;;;;5089293;28;20196;-72
2021/07/26 02:29:37;;;;;;;1.25;1.15;;;19.90;99.90;;;;;;5089227;28;20194;-72
2021/07/26 02:32:03;;;;;;;1.88;1.77;;;19.90;99.90;;;;;;5088559;28;20156;-72
2021/07/26 02:34:29;;;;;;;3.63;1.05;;;19.80;99.90;;;;;;5087626;28;20212;-72
2021/07/26 02:36:54;;;;;;;2.08;1.98;;;19.80;99.90;;;;;;5087859;28;20175;-72
2021/07/26 02:39:20;;;;;;;3.00;1.98;;;19.80;99.90;;;;;;5089249;28;20157;-72
2021/07/26 02:41:46;;;;;;;1.90;1.80;;;19.80;99.90;;;;;;5088465;28;20184;-72
2021/07/26 02:44:11;;;;;;;2.00;1.23;;;20.10;99.90;;;;;;5088916;28;20195;-72
2021/07/26 02:46:38;;;;;;;0.82;0.82;;;20.10;99.90;;;;;;5088967;28;20215;-72
2021/07/26 02:49:03;;;;;;;0.50;0.50;;;20.20;99.90;;;;;;5087563;28;20300;-72
2021/07/26 02:51:29;;;;;;;0.55;0.55;;;20.20;99.90;;;;;;5088873;28;20169;-72
2021/07/26 02:53:56;;;;;;;1.88;1.45;;;20.10;99.90;;;;;;5087227;28;20222;-72
2021/07/26 02:56:22;;;;;;;0.80;0.80;;;20.00;99.90;;;;;;5088737;28;20190;-72
2021/07/26 02:58:47;;;;;;;2.15;1.95;;;19.90;99.90;;;;;;5092636;28;20152;-72
2021/07/26 03:01:13;;;;;;;2.08;1.00;;;19.80;99.90;;;;;;5091614;28;20199;-72
2021/07/26 03:03:40;;;;;;;5.72;1.30;;;19.80;99.90;;;;;;5092093;28;20196;-72
2021/07/26 03:06:16;;;;;;;2.45;1.15;;;19.80;99.90;;;;;;5092750;28;20239;-72
2021/07/26 03:08:43;;;;;;;0.88;0.88;;;19.90;99.90;;;;;;5092626;28;20155;-72
2021/07/26 03:11:12;;;;;;;0.43;0.43;;;19.90;99.90;;;;;;5092656;28;20160;-72
2021/07/26 03:13:44;;;;;;;1.80;1.70;;;19.90;99.90;;;;;;5091818;28;20257;-72
2021/07/26 03:16:11;;;;;;;1.98;0.52;;;19.70;99.90;;;;;;5092587;28;20152;-72
2021/07/26 03:18:37;;;;;;;2.15;2.05;;;19.60;99.90;;;;;;5092599;28;20164;-72
2021/07/26 03:21:04;;;;;;;2.05;1.20;;;19.70;99.90;;;;;;5091122;28;20164;-72
2021/07/26 03:23:31;;;;;;;1.50;1.08;;;19.70;99.90;;;;;;5091752;28;20198;-72
2021/07/26 03:25:57;;;;;;;1.38;1.27;;;19.60;99.90;;;;;;5092714;28;20251;-72
2021/07/26 03:28:23;;;;;;;0.90;0.90;;;19.60;99.90;;;;;;5092399;28;20168;-72
2021/07/26 03:30:48;;;;;;;2.28;1.27;;;19.50;99.90;;;;;;5092234;28;20229;-72
2021/07/26 03:33:14;;;;;;;0.68;0.68;;;19.50;99.90;;;;;;5090340;28;20204;-72
2021/07/26 03:35:40;;;;;;;0.52;0.52;;;19.50;99.90;;;;;;5092398;28;20156;-72
2021/07/26 03:38:07;;;;;;;0.43;0.43;;;19.40;99.90;;;;;;5092341;28;20211;-72
2021/07/26 03:40:33;;;;;;;0.65;0.65;;;19.40;99.90;;;;;;5092001;28;20156;-72
2021/07/26 03:43:01;;;;;;;0.68;0.68;;;19.50;99.90;;;;;;5091968;28;20559;-72
2021/07/26 03:45:29;;;;;;;2.10;2.00;;;19.40;99.90;;;;;;5091893;28;20156;-72
2021/07/26 03:47:57;;;;;;;1.15;1.00;;;19.40;99.90;;;;;;5091676;28;20246;-72
2021/07/26 03:50:23;;;;;;;0.68;0.68;;;19.40;99.90;;;;;;5090360;28;20256;-72
2021/07/26 03:52:54;;;;;;;1.73;1.63;;;19.40;99.90;;;;;;5090416;28;20211;-72
2021/07/26 03:55:25;;;;;;;0.43;0.43;;;19.50;99.90;;;;;;5090631;28;20187;-72
2021/07/26 03:57:53;;;;;;;2.97;1.42;;;19.50;99.90;;;;;;5091749;28;20160;-72
2021/07/26 04:00:22;;;;;;;1.48;1.23;;;19.50;99.90;;;;;;5091688;28;20168;-72
2021/07/26 04:05:41;;;;;;;1.65;1.35;;;19.70;99.90;;;;;;5091713;28;20168;-72
2021/07/26 04:08:14;;;;;;;0.82;0.82;;;19.80;99.90;;;;;;5091384;28;20224;-73
2021/07/26 04:10:44;;;;;;;2.30;2.10;;;19.80;99.90;;;;;;5091343;28;20206;-72
2021/07/26 04:13:11;;;;;;;0.77;0.77;;;20.00;99.90;;;;;;5089928;28;20235;-72
2021/07/26 04:15:39;;;;;;;5.05;1.58;;;20.10;99.90;;;;;;5091474;28;20149;-72
2021/07/26 04:18:04;;;;;;;8.50;2.28;;;20.10;99.90;;;;;;5091517;28;20149;-72
2021/07/26 04:20:30;;;;;;;1.52;1.33;;;20.10;99.90;;;;;;5091174;28;20187;-72
2021/07/26 04:22:57;;;;;;;1.15;1.10;;;20.10;99.90;;;;;;5091305;28;20203;-72
2021/07/26 04:25:23;;;;;;;1.25;1.10;;;20.10;99.90;;;;;;5091358;28;20178;-72
2021/07/26 04:27:49;;;;;;;1.35;1.25;;;20.10;99.90;;;;;;5089930;28;20628;-72
2021/07/26 04:30:15;;;;;;;2.08;1.20;;;20.00;99.90;;;;;;5091239;28;20156;-72
2021/07/26 04:32:43;;;;;;;2.30;1.45;;;20.10;99.90;;;;;;5090971;28;20239;-72
2021/07/26 04:35:09;;;;;;;1.20;1.13;;;20.40;99.90;;;;;;5091132;28;20167;-72
2021/07/26 04:37:35;;;;;;;2.20;2.08;;;20.80;99.90;;;;;;5091008;28;20156;-72
2021/07/26 04:40:01;;;;;;;4.07;2.17;;;21.10;99.90;;;;;;5091023;28;20161;-72
2021/07/26 04:42:27;;;;;;;1.95;1.25;;;21.30;99.90;;;;;;5090970;28;20171;-72
2021/07/26 04:44:53;;;;;;;1.23;0.98;;;21.60;99.90;;;;;;5089408;28;20195;-72
2021/07/26 04:47:19;;;;;;;1.65;1.50;;;21.90;99.90;;;;;;5089341;28;20295;-72
2021/07/26 04:49:45;;;;;;;1.23;1.13;;;22.20;99.90;;;;;;5090715;28;20258;-72
2021/07/26 04:52:12;;;;;;;1.02;1.02;;;22.20;99.90;;;;;;5090802;28;20160;-72
2021/07/26 04:54:38;;;;;;;2.28;1.75;;;22.30;99.90;;;;;;5090378;28;20203;-72
2021/07/26 04:57:04;;;;;;;2.72;1.08;;;22.50;99.90;;;;;;5090604;28;20159;-72
2021/07/26 04:59:30;;;;;;;1.20;1.05;;;22.50;99.90;;;;;;5090733;28;20152;-72
2021/07/26 05:01:55;;;;;;;2.10;1.60;;;22.60;99.90;;;;;;5090467;28;20215;-72
2021/07/26 05:04:21;;;;;;;3.85;2.55;;;22.90;99.90;;;;;;5090294;28;20194;-72
2021/07/26 05:06:47;;;;;;;0.90;0.85;;;23.00;99.90;;;;;;5090529;28;20164;-72
2021/07/26 05:09:13;;;;;;;0.88;0.88;;;23.30;99.90;;;;;;5090337;28;20535;-72
2021/07/26 05:11:40;;;;;;;1.35;1.33;;;23.40;99.90;;;;;;5090163;28;20218;-72
2021/07/26 05:14:11;;;;;;;2.00;1.30;;;23.50;99.90;;;;;;5089945;28;20210;-73
2021/07/26 05:16:37;;;;;;;2.15;1.58;;;23.60;99.90;;;;;;5088845;28;20164;-72
2021/07/26 05:19:03;;;;;;;1.60;1.27;;;23.50;99.90;;;;;;5090091;28;20166;-73
2021/07/26 05:21:29;;;;;;;3.00;2.08;;;24.00;99.90;;;;;;5088268;28;20167;-72
2021/07/26 05:23:54;;;;;;;1.50;1.40;;;23.80;99.90;;;;;;5089982;28;20195;-72
2021/07/26 05:26:20;;;;;;;1.15;1.05;;;24.00;99.90;;;;;;5088716;28;20194;-72
2021/07/26 05:28:46;;;;;;;2.63;1.58;;;23.70;99.90;;;;;;5090134;28;20164;-72
2021/07/26 05:31:12;;;;;;;3.83;1.60;;;24.20;99.90;;;;;;5089930;28;20163;-72
2021/07/26 05:33:38;;;;;;;1.17;1.08;;;24.50;99.90;;;;;;5089669;28;20206;-72
2021/07/26 05:36:04;;;;;;;2.42;1.75;;;25.20;99.90;;;;;;5089927;28;20159;-72
2021/07/26 05:38:30;;;;;;;3.38;1.02;;;24.60;99.90;;;;;;5089596;28;20166;-72
2021/07/26 05:40:57;;;;;;;1.45;1.35;;;24.90;99.90;;;;;;5089266;28;20156;-72
2021/07/26 05:43:22;;;;;;;1.58;0.88;;;25.30;99.90;;;;;;5088360;28;20199;-72
2021/07/26 05:45:49;;;;;;;0.43;0.43;;;25.00;99.90;;;;;;5088266;28;20190;-72
2021/07/26 05:48:15;;;;;;;1.83;0.80;;;25.80;99.90;;;;;;5089464;28;20245;-73
2021/07/26 05:50:40;;;;;;;0.77;0.77;;;26.20;99.90;;;;;;5089506;28;20232;-72
2021/07/26 05:53:06;;;;;;;8.93;2.00;;;25.90;99.90;;;;;;5089385;28;20230;-72
2021/07/26 05:55:32;;;;;;;1.25;0.90;;;25.50;99.90;;;;;;5089409;28;20163;-72
2021/07/26 05:58:00;;;;;;;0.30;0.30;;;25.40;99.90;;;;;;5089525;28;20160;-72
2021/07/26 06:00:36;;;;;;;3.03;1.63;;;25.90;99.90;;;;;;5089489;28;20151;-72
2021/07/26 06:03:02;;;;;;;1.63;0.88;;;26.60;99.90;;;;;;5089359;28;20221;-72
2021/07/26 06:05:28;;;;;;;0.55;0.55;;;26.70;99.90;;;;;;5087928;28;20212;-72
2021/07/26 06:07:55;;;;;;;0.93;0.73;;;26.90;99.90;;;;;;5089293;28;20194;-72
2021/07/26 06:10:20;;;;;;;1.13;1.02;;;27.80;99.90;;;;;;5089253;28;20163;-72
2021/07/26 06:12:46;;;;;;;3.72;2.38;;;28.90;99.90;;;;;;5089142;28;20231;-72
2021/07/26 06:15:12;;;;;;;1.10;1.02;;;29.30;99.90;;;;;;5089214;28;20560;-72
2021/07/26 06:17:38;;;;;;;2.25;1.45;;;29.50;99.90;;;;;;5087977;28;20164;-72
2021/07/26 06:20:06;;;;;;;1.90;1.80;;;29.50;99.90;;;;;;5089300;28;20631;-74
2021/07/26 06:22:32;;;;;;;1.08;0.98;;;29.30;99.90;;;;;;5089041;28;20159;-73
2021/07/26 06:24:58;;;;;;;7.03;2.13;;;29.10;99.90;;;;;;5089123;28;20672;-73
2021/07/26 06:27:24;;;;;;;1.65;1.15;;;29.40;99.90;;;;;;5089269;28;20160;-73
2021/07/26 06:29:52;;;;;;;0.50;0.47;;;29.00;99.90;;;;;;5088974;28;20668;-72
2021/07/26 06:32:19;;;;;;;0.70;0.70;;;29.20;99.90;;;;;;5088277;28;20152;-72
2021/07/26 06:34:44;;;;;;;1.45;1.35;;;28.80;99.90;;;;;;5088814;28;20267;-72
2021/07/26 06:37:10;;;;;;;1.38;0.90;;;29.80;99.90;;;;;;5089034;28;20194;-73
2021/07/26 06:39:36;;;;;;;1.02;0.98;;;31.10;99.90;;;;;;5088931;28;20156;-72
2021/07/26 06:42:03;;;;;;;2.08;1.30;;;30.90;99.90;;;;;;5087628;28;20163;-72
2021/07/26 06:44:28;;;;;;;2.03;1.38;;;30.40;99.90;;;;;;5087437;28;20266;-72
2021/07/26 06:46:54;;;;;;;1.23;0.47;;;29.20;99.90;;;;;;5088547;28;20163;-72
2021/07/26 06:49:20;;;;;;;1.55;1.27;;;29.10;99.90;;;;;;5088632;28;20171;-73
2021/07/26 06:51:46;;;;;;;0.63;0.63;;;30.20;99.90;;;;;;5088785;28;20496;-72
2021/07/26 06:54:12;;;;;;;0.90;0.80;;;30.80;99.90;;;;;;5088440;28;20258;-72
2021/07/26 06:56:38;;;;;;;32.95;2.45;;;30.40;99.90;;;;;;5088671;28;20156;-73
2021/07/26 06:59:04;;;;;;;1.67;1.33;;;29.60;99.90;;;;;;5088652;28;20151;-72
2021/07/26 07:01:30;;;;;;;1.88;0.82;;;28.90;99.90;;;;;;5088833;28;20171;-72
2021/07/26 07:03:56;;;;;;;4.05;0.85;;;28.00;99.90;;;;;;5088738;28;20197;-72
2021/07/26 07:06:23;;;;;;;1.02;0.90;;;27.90;99.90;;;;;;5087314;28;20172;-73
2021/07/26 07:08:49;;;;;;;1.27;1.00;;;28.20;99.90;;;;;;5088628;28;20163;-72
2021/07/26 07:11:18;;;;;;;1.08;0.98;;;28.10;99.90;;;;;;5088633;28;20167;-72
2021/07/26 07:13:50;;;;;;;0.88;0.80;;;28.10;99.90;;;;;;5088606;28;20249;-72
2021/07/26 07:16:18;;;;;;;1.13;0.98;;;28.30;99.90;;;;;;5087274;28;20190;-72
2021/07/26 07:18:46;;;;;;;0.70;0.70;;;29.40;99.90;;;;;;5088636;28;20612;-73
2021/07/26 07:21:17;;;;;;;15.07;1.65;;;31.10;99.90;;;;;;5088562;28;20159;-73
2021/07/26 07:23:43;;;;;;;1.15;0.98;;;31.80;99.90;;;;;;5088449;28;20199;-72
2021/07/26 07:26:09;;;;;;;0.95;0.95;;;31.10;99.90;;;;;;5087324;28;20179;-72
2021/07/26 07:28:34;;;;;;;1.90;1.73;;;30.90;99.90;;;;;;5087140;28;20629;-72
2021/07/26 07:31:00;;;;;;;1.23;1.13;;;31.40;99.90;;;;;;5088598;28;20159;-72
2021/07/26 07:33:26;;;;;;;1.50;1.40;;;31.80;99.90;;;;;;5088394;28;20230;-72
2021/07/26 07:35:52;;;;;;;2.15;1.17;;;32.40;99.90;;;;;;5086549;28;20187;-72
2021/07/26 07:38:18;;;;;;;1.70;1.60;;;32.60;99.90;;;;;;5088287;28;20247;-73
2021/07/26 07:40:44;;;;;;;1.30;1.20;;;33.20;99.90;;;;;;5088248;28;20156;-72
2021/07/26 07:43:10;;;;;;;1.23;1.13;;;32.90;99.90;;;;;;5086577;28;20682;-72
2021/07/26 07:45:36;;;;;;;2.88;1.42;;;31.20;99.90;;;;;;5091752;28;20147;-72
2021/07/26 07:48:02;;;;;;;3.08;1.35;;;29.40;99.90;;;;;;5091415;28;20279;-72
2021/07/26 07:50:28;;;;;;;0.82;0.82;;;28.90;99.90;;;;;;5091975;28;20152;-72
2021/07/26 07:52:55;;;;;;;1.85;1.42;;;28.50;99.90;;;;;;5089816;28;20211;-71
2021/07/26 07:55:21;;;;;;;1.13;0.90;;;28.80;99.90;;;;;;5091718;28;20177;-72
2021/07/26 07:57:51;;;;;;;2.38;2.17;;;30.30;99.90;;;;;;5091896;28;20143;-72
2021/07/26 08:00:18;;;;;;;1.17;1.10;;;30.40;99.90;;;;;;5091732;28;20171;-72
2021/07/26 08:02:44;;;;;;;1.42;1.13;;;30.50;99.90;;;;;;5091027;28;20231;-72
2021/07/26 08:05:11;;;;;;;0.77;0.77;;;31.80;99.90;;;;;;5091713;28;20159;-71
2021/07/26 08:07:37;;;;;;;0.70;0.70;;;32.00;99.90;;;;;;5091415;28;20163;-72
2021/07/26 08:10:04;;;;;;;0.88;0.88;;;32.60;99.90;;;;;;5090981;28;20168;-72
2021/07/26 08:12:33;;;;;;;2.28;1.48;;;33.60;99.90;;;;;;5090673;28;20163;-72
2021/07/26 08:14:59;;;;;;;4.60;0.98;;;32.00;99.90;;;;;;5091008;28;20206;-72
2021/07/26 08:17:25;;;;;;;0.65;0.65;;;32.70;99.90;;;;;;5091355;28;20151;-72
2021/07/26 08:19:51;;;;;;;2.65;1.48;;;31.90;99.90;;;;;;5090985;28;20208;-72
2021/07/26 08:22:17;;;;;;;1.20;1.10;;;31.00;99.90;;;;;;5090427;28;20223;-72
2021/07/26 08:24:43;;;;;;;3.70;1.92;;;31.80;99.90;;;;;;5090534;28;20187;-72
2021/07/26 08:27:09;;;;;;;1.27;0.88;;;32.00;99.90;;;;;;5089711;28;20185;-72
2021/07/26 08:29:35;;;;;;;1.85;1.70;;;31.60;99.90;;;;;;5091190;28;20165;-72
2021/07/26 08:32:01;;;;;;;0.95;0.80;;;32.50;99.90;;;;;;5090558;28;20160;-72
2021/07/26 08:34:26;;;;;;;3.13;2.08;;;32.90;99.90;;;;;;5088872;28;20211;-72
2021/07/26 08:36:55;;;;;;;1.38;1.27;;;33.40;99.90;;;;;;5072350;28;20176;-72
2021/07/26 08:39:21;;;;;;;1.38;1.25;;;34.00;99.90;;;;;;5070701;28;20149;-72
2021/07/26 08:41:48;;;;;;;3.15;2.60;;;34.30;99.90;;;;;;5070396;28;20160;-72
2021/07/26 08:44:14;;;;;;;2.33;1.75;;;33.70;99.90;;;;;;5088713;28;20320;-72
2021/07/26 08:46:43;;;;;;;1.95;1.80;;;33.90;99.90;;;;;;5089440;28;20171;-72
2021/07/26 08:49:11;;;;;;;0.70;0.70;;;33.60;99.90;;;;;;5090358;28;20715;-72
2021/07/26 08:51:44;;;;;;;1.20;1.10;;;34.30;99.90;;;;;;5090346;28;20219;-72
2021/07/26 08:54:12;;;;;;;1.15;1.05;;;35.50;99.90;;;;;;5089704;28;20199;-72
2021/07/26 08:56:40;;;;;;;1.80;1.13;;;35.40;99.90;;;;;;5090176;28;20148;-72
2021/07/26 08:59:06;;;;;;;3.38;2.35;;;35.30;99.90;;;;;;5090509;28;20163;-72
2021/07/26 09:01:34;;;;;;;1.98;1.50;;;34.70;99.90;;;;;;5090375;28;20213;-72
2021/07/26 09:04:00;;;;;;;4.43;2.33;;;35.40;99.90;;;;;;5090031;28;20251;-72
2021/07/26 09:06:26;;;;;;;2.25;1.58;;;36.20;99.90;;;;;;5090544;28;20156;-72
2021/07/26 09:08:54;;;;;;;1.15;0.93;;;35.90;99.90;;;;;;5089033;28;20179;-72
2021/07/26 09:11:20;;;;;;;1.85;1.40;;;34.90;99.90;;;;;;5090334;28;20159;-72
2021/07/26 09:13:46;;;;;;;2.28;1.90;;;34.30;99.90;;;;;;5089927;28;20223;-72
2021/07/26 09:16:22;;;;;;;0.63;0.63;;;34.20;99.90;;;;;;5089716;28;20190;-72
2021/07/26 09:19:02;;;;;;;3.65;2.53;;;34.80;99.90;;;;;;5090273;28;20190;-72
2021/07/26 09:21:53;;;;;;;1.98;1.52;;;35.50;99.90;;;;;;5088658;28;20167;-72
2021/07/26 09:24:29;;;;;;;5.40;1.73;;;35.90;99.90;;;;;;5089967;28;20195;-72
2021/07/26 09:27:10;;;;;;;8.68;2.60;;;32.50;99.90;;;;;;5088603;28;20178;-72
2021/07/26 09:29:36;;;;;;;3.25;1.80;;;34.00;99.90;;;;;;5088566;28;20197;-72
2021/07/26 09:32:05;;;;;;;3.80;1.08;;;34.30;99.90;;;;;;5089665;28;20587;-72
2021/07/26 09:34:36;;;;;;;4.13;1.13;;;35.30;99.90;;;;;;5089747;28;20232;-72
2021/07/26 09:37:15;;;;;;;2.10;1.30;;;35.70;99.90;;;;;;5089329;28;20171;-72
2021/07/26 09:39:41;;;;;;;1.30;1.20;;;34.40;99.90;;;;;;5089721;28;20162;-72
2021/07/26 09:42:26;;;;;;;2.25;1.23;;;33.80;99.90;;;;;;5089500;28;20160;-72
2021/07/26 09:44:53;;;;;;;5.68;1.98;;;34.90;99.90;;;;;;5089303;28;20198;-72
2021/07/26 09:47:21;;;;;;;11.15;2.80;;;35.20;99.90;;;;;;5089018;28;20223;-72
2021/07/26 09:49:48;;;;;;;3.70;1.30;;;34.70;99.90;;;;;;5089617;28;20156;-72
2021/07/26 09:52:16;;;;;;;1.40;1.30;;;34.40;99.90;;;;;;5089347;28;20181;-72
2021/07/26 09:54:48;;;;;;;1.67;0.88;;;35.20;99.90;;;;;;5089466;28;20207;-72
2021/07/26 09:57:25;;;;;;;1.98;1.85;;;35.70;99.90;;;;;;5089088;28;20162;-72
2021/07/26 09:59:52;;;;;;;1.67;1.13;;;36.20;99.90;;;;;;5087804;28;20159;-72
2021/07/26 10:02:19;;;;;;;2.67;2.20;;;36.20;99.90;;;;;;5089055;28;20162;-71
2021/07/26 10:04:48;;;;;;;1.20;1.10;;;35.40;99.90;;;;;;5089359;28;20229;-72
2021/07/26 10:07:16;;;;;;;1.25;1.02;;;34.40;99.90;;;;;;5087415;28;20175;-72
2021/07/26 10:09:43;;;;;;;1.38;1.27;;;34.70;99.90;;;;;;5089237;28;20159;-71
2021/07/26 10:12:20;;;;;;;2.08;1.40;;;33.70;99.90;;;;;;5089169;28;20221;-72
2021/07/26 10:14:50;;;;;;;2.92;1.88;;;34.00;99.90;;;;;;5087449;28;20218;-72
2021/07/26 10:17:16;;;;;;;1.25;1.15;;;34.20;99.90;;;;;;5087512;28;20167;-70
2021/07/26 10:19:42;;;;;;;1.38;1.27;;;34.70;99.90;;;;;;5089231;28;20186;-70
2021/07/26 10:22:23;;;;;;;12.45;1.60;;;34.20;99.90;;;;;;5088934;28;20759;-70
2021/07/26 10:25:20;;;;;;;5.50;1.95;;;33.70;99.90;;;;;;5087662;28;20204;-70
2021/07/26 10:27:49;;;;;;;5.03;1.33;;;34.10;99.90;;;;;;5079547;28;20198;-70
2021/07/26 10:30:36;;;;;;;2.40;1.08;;;32.90;99.90;;;;;;5089022;28;20170;-71
2021/07/26 10:33:03;;;;;;;1.42;1.00;;;33.20;99.90;;;;;;5087402;28;20691;-71
2021/07/26 10:35:57;;;;;;;0.90;0.90;;;33.90;99.90;;;;;;5087728;28;20205;-70
2021/07/26 10:38:41;;;;;;;5.57;1.15;;;33.60;99.90;;;;;;5088286;28;20183;-70
2021/07/26 10:41:07;;;;;;;2.33;1.33;;;34.10;99.90;;;;;;5088973;28;20182;-70
2021/07/26 10:43:53;;;;;;;2.53;1.60;;;33.70;99.90;;;;;;5088610;28;20199;-70
2021/07/26 10:46:19;;;;;;;3.95;2.33;;;33.50;99.90;;;;;;5088932;28;20174;-69
2021/07/26 10:48:51;;;;;;;1.58;1.20;;;32.90;99.90;;;;;;5088469;28;20639;-70
2021/07/26 10:51:37;;;;;;;1.48;1.38;;;33.50;99.90;;;;;;5088925;28;20179;-70
2021/07/26 10:54:04;;;;;;;1.77;1.52;;;34.30;99.90;;;;;;5087486;28;20210;-70
2021/07/26 10:57:10;;;;;;;2.05;1.52;;;34.90;99.90;;;;;;5088797;28;20163;-70
2021/07/26 11:00:10;;;;;;;2.15;1.45;;;35.70;99.90;;;;;;5088404;28;20152;-71
2021/07/26 11:02:38;;;;;;;4.03;2.05;;;36.30;99.90;;;;;;5088521;28;20174;-71
2021/07/26 11:05:26;;;;;;;3.25;1.50;;;34.40;99.90;;;;;;5088827;28;20186;-71
2021/07/26 11:08:19;;;;;;;1.33;1.15;;;34.40;99.90;;;;;;5088323;28;20258;-70
2021/07/26 11:10:47;;;;;;;1.40;1.30;;;34.00;99.90;;;;;;5088788;28;20155;-70
2021/07/26 11:13:14;;;;;;;1.02;1.02;;;33.60;99.90;;;;;;5087074;28;20225;-70
2021/07/26 11:15:43;;;;;;;1.10;1.05;;;33.60;99.90;;;;;;5088553;28;20163;-70
2021/07/26 11:18:37;;;;;;;10.90;2.10;;;33.60;99.90;;;;;;5089196;28;20169;-71
2021/07/26 11:21:12;;;;;;;2.00;1.33;;;33.80;99.90;;;;;;5092259;28;20243;-71
2021/07/26 11:23:54;;;;;;;1.40;1.30;;;33.40;99.90;;;;;;5092083;28;20187;-70
2021/07/26 11:26:25;;;;;;;1.77;1.55;;;31.80;99.90;;;;;;5092473;28;20167;-71
2021/07/26 11:29:02;;;;;;;3.60;1.20;;;32.40;99.90;;;;;;5090642;28;20178;-71
2021/07/26 11:31:31;;;;;;;3.05;2.10;;;33.30;99.90;;;;;;5092141;28;20156;-71
2021/07/26 11:34:27;;;;;;;1.75;1.60;;;33.60;99.90;;;;;;5092084;28;20207;-70
2021/07/26 11:37:08;;;;;;;2.03;1.00;;;33.90;99.90;;;;;;5090952;28;20698;-71
2021/07/26 11:39:57;;;;;;;2.05;1.77;;;34.30;99.90;;;;;;5091954;28;20151;-71
2021/07/26 11:42:32;;;;;;;3.13;2.15;;;34.20;99.90;;;;;;5091793;28;20503;-71
2021/07/26 11:45:02;;;;;;;0.45;0.45;;;34.60;99.90;;;;;;5092010;28;20272;-71
2021/07/26 11:47:34;;;;;;;1.60;1.38;;;34.50;99.90;;;;;;5090803;28;20278;-72
2021/07/26 11:50:05;;;;;;;7.22;2.15;;;35.10;99.90;;;;;;5090797;28;20175;-70
2021/07/26 11:52:31;;;;;;;5.20;2.22;;;35.50;99.90;;;;;;5091850;28;20156;-70
2021/07/26 11:54:57;;;;;;;5.68;2.38;;;35.40;99.90;;;;;;5091656;28;20210;-70
2021/07/26 11:57:23;;;;;;;4.93;1.77;;;35.80;99.90;;;;;;5091869;28;20156;-71
2021/07/26 11:59:50;;;;;;;1.20;1.20;;;35.70;99.90;;;;;;5090366;28;20175;-71
2021/07/26 12:02:29;;;;;;;1.38;1.27;;;35.60;99.90;;;;;;5091835;28;20178;-70
2021/07/26 12:05:01;;;;;;;3.13;2.08;;;35.10;99.90;;;;;;5091583;28;20678;-71
2021/07/26 12:07:47;;;;;;;2.92;1.40;;;34.60;99.90;;;;;;5090613;28;20184;-70
2021/07/26 12:10:17;;;;;;;3.70;1.33;;;34.70;99.90;;;;;;5091236;28;20199;-70
2021/07/26 12:12:46;;;;;;;2.08;1.45;;;34.70;99.90;;;;;;5091456;28;20225;-71
2021/07/26 12:15:30;;;;;;;16.45;2.15;;;34.60;99.90;;;;;;5091533;28;20178;-70
2021/07/26 12:18:10;;;;;;;2.30;1.98;;;34.20;99.90;;;;;;5091451;28;20152;-70
2021/07/26 12:20:52;;;;;;;2.97;1.90;;;33.50;99.90;;;;;;5091438;28;20155;-70
2021/07/26 12:23:23;;;;;;;2.17;1.83;;;32.90;99.90;;;;;;5091216;28;20201;-70
2021/07/26 12:25:51;;;;;;;2.30;2.13;;;32.00;99.90;;;;;;5091431;28;20254;-70
2021/07/26 12:28:19;;;;;;;2.22;1.63;;;32.10;99.90;;;;;;5091072;28;20160;-70
2021/07/26 12:30:51;;;;;;;2.10;1.85;;;32.00;99.90;;;;;;5090952;28;20162;-70
2021/07/26 12:33:31;;;;;;;1.45;1.35;;;31.50;99.90;;;;;;5089601;28;20230;-70
2021/07/26 12:36:13;;;;;;;3.08;1.80;;;31.70;99.90;;;;;;5089822;28;20176;-70
2021/07/26 12:38:41;;;;;;;1.10;1.10;;;32.00;99.90;;;;;;5089941;28;20203;-71
2021/07/26 12:41:10;;;;;;;1.52;1.42;;;32.30;99.90;;;;;;5086280;28;20243;-71
2021/07/26 12:43:37;;;;;;;2.13;1.42;;;31.90;99.90;;;;;;5082796;28;20191;-71
2021/07/26 12:46:07;;;;;;;1.27;1.15;;;31.80;99.90;;;;;;5089490;28;20184;-71
2021/07/26 12:48:35;;;;;;;1.90;1.55;;;31.60;99.90;;;;;;5090821;28;20226;-70
2021/07/26 12:51:05;;;;;;;3.40;1.20;;;31.60;99.90;;;;;;5090843;28;20159;-71
2021/07/26 12:53:31;;;;;;;0.88;0.70;;;31.50;99.90;;;;;;5090508;28;20224;-70
2021/07/26 12:55:57;;;;;;;1.02;0.88;;;31.30;99.90;;;;;;5090857;28;20215;-71
2021/07/26 12:58:24;;;;;;;1.65;1.38;;;31.00;99.90;;;;;;5090546;28;20156;-71